Aviation Digital Data Service (ADDS)

Output produced by METARs form (0850 UTC 03 September 2015)
found at http://aviationweather.gov/adds/metars/
 
KTOL 030539Z 0306/0406 23005KT P6SM BKN200 
     TEMPO 0310/0313 5SM BR SCT250 
     FM031500 30005KT P6SM SCT050 BKN200 
     FM032000 30006KT P6SM VCTS BKN050CB OVC200 
     FM032300 VRB05KT P6SM SCT050 BKN150